Time;durP1;ratioP1;P1;durP2;ratioP2;P2;SDS_P1;SDS_P2;PMS_P1;PMS_P2;Temp;Humidity;BMP_temperature;BMP_pressure;BME280_temperature;BME280_humidity;BME280_pressure;Samples;Min_cycle;Max_cycle;Signal;HPM_P1;HPM_P2
2023/08/15 00:02:16;;;;;;;16.55;6.10;;;;;;;19.52;100.00;101053.50;5106968;28;20087;-75
2023/08/15 00:04:41;;;;;;;17.83;6.05;;;;;;;19.44;100.00;101053.47;5110640;27;20419;-75
2023/08/15 00:07:07;;;;;;;18.70;6.20;;;;;;;19.36;100.00;101048.03;5107010;28;20028;-76
2023/08/15 00:09:32;;;;;;;18.80;5.78;;;;;;;19.28;100.00;101039.81;5125563;28;20051;-74
2023/08/15 00:11:59;;;;;;;16.55;5.63;;;;;;;19.18;100.00;101035.34;5122431;28;20024;-76
2023/08/15 00:14:24;;;;;;;18.48;5.65;;;;;;;19.08;100.00;101029.19;5109803;28;20118;-75
2023/08/15 00:16:49;;;;;;;15.90;5.55;;;;;;;19.01;100.00;101022.69;5126588;28;20034;-75
2023/08/15 00:19:15;;;;;;;18.70;6.22;;;;;;;18.92;100.00;101021.78;5112311;27;20031;-76
2023/08/15 00:21:40;;;;;;;19.98;6.22;;;;;;;18.83;100.00;101026.31;5127296;27;20037;-75
2023/08/15 00:24:05;;;;;;;18.20;6.30;;;;;;;18.76;100.00;101027.97;5125290;28;20466;-75
2023/08/15 00:26:31;;;;;;;19.60;6.47;;;;;;;18.68;100.00;101034.25;5108146;27;20076;-75
2023/08/15 00:28:58;;;;;;;17.30;6.38;;;;;;;18.66;100.00;101051.75;5117358;28;20030;-75
2023/08/15 00:31:24;;;;;;;18.30;6.10;;;;;;;18.62;100.00;101051.19;5119987;28;20103;-75
2023/08/15 00:33:49;;;;;;;15.70;5.88;;;;;;;18.60;100.00;101053.22;5122842;28;20027;-75
2023/08/15 00:36:14;;;;;;;19.98;6.15;;;;;;;18.60;100.00;101052.38;5121336;28;20018;-75
2023/08/15 00:38:40;;;;;;;16.92;6.00;;;;;;;18.58;100.00;101054.41;5111352;28;20036;-75
2023/08/15 00:41:09;;;;;;;16.73;6.22;;;;;;;18.55;100.00;101054.72;5116744;28;20051;-75
2023/08/15 00:43:35;;;;;;;16.38;5.38;;;;;;;18.53;100.00;101052.16;5123017;28;20042;-75
2023/08/15 00:46:03;;;;;;;18.20;5.38;;;;;;;18.49;100.00;101059.81;5119432;28;20057;-76
2023/08/15 00:48:30;;;;;;;18.73;6.88;;;;;;;18.46;100.00;101062.84;5106791;28;20026;-74
2023/08/15 00:50:56;;;;;;;18.65;6.32;;;;;;;18.45;100.00;101069.28;5122642;28;20131;-75
2023/08/15 00:53:22;;;;;;;19.17;5.90;;;;;;;18.40;100.00;101073.50;5121029;28;20016;-75
2023/08/15 00:55:49;;;;;;;19.38;6.05;;;;;;;18.39;100.00;101067.22;5106307;28;20146;-75
2023/08/15 00:58:15;;;;;;;18.40;5.65;;;;;;;18.41;100.00;101072.50;5109444;28;20069;-76
2023/08/15 01:00:42;;;;;;;19.33;5.50;;;;;;;18.38;100.00;101064.66;5121408;28;20031;-76
2023/08/15 01:03:08;;;;;;;19.65;5.82;;;;;;;18.32;100.00;101058.81;5105996;28;20041;-74
2023/08/15 01:05:34;;;;;;;18.17;5.15;;;;;;;18.31;100.00;101065.25;5125093;28;20026;-75
2023/08/15 01:08:00;;;;;;;19.02;5.22;;;;;;;18.30;100.00;101059.97;5127041;28;20032;-74
2023/08/15 01:10:26;;;;;;;17.30;5.22;;;;;;;18.28;100.00;101053.84;5113039;28;20084;-75
2023/08/15 01:13:02;;;;;;;16.15;5.13;;;;;;;18.26;100.00;101056.72;5123343;28;20030;-76
2023/08/15 01:15:31;;;;;;;16.10;5.45;;;;;;;18.23;100.00;101050.75;5106657;28;20035;-74
2023/08/15 01:18:12;;;;;;;17.77;5.47;;;;;;;18.24;100.00;101050.56;5111767;28;20016;-77
2023/08/15 01:20:38;;;;;;;19.42;5.18;;;;;;;18.22;100.00;101054.50;5121967;28;20020;-74
2023/08/15 01:23:07;;;;;;;14.95;5.30;;;;;;;18.20;100.00;101056.50;5119053;28;20028;-75
2023/08/15 01:25:42;;;;;;;16.73;5.07;;;;;;;18.20;100.00;101046.50;5124564;28;20057;-75
2023/08/15 01:28:12;;;;;;;17.95;5.22;;;;;;;18.20;100.00;101051.06;5122214;28;20032;-75
2023/08/15 01:30:43;;;;;;;18.75;5.10;;;;;;;18.18;100.00;101048.50;5112858;28;20062;-75
2023/08/15 01:33:25;;;;;;;16.50;4.25;;;;;;;18.16;100.00;101051.38;5105793;28;20050;-75
2023/08/15 01:35:58;;;;;;;15.75;5.40;;;;;;;18.12;100.00;101071.72;5121342;28;20015;-75
2023/08/15 01:38:28;;;;;;;13.85;4.60;;;;;;;18.07;99.49;101082.25;5127120;28;20057;-76
2023/08/15 01:40:57;;;;;;;21.38;5.15;;;;;;;18.07;100.00;101082.25;5107387;28;20134;-76
2023/08/15 01:43:23;;;;;;;18.95;5.20;;;;;;;18.07;100.00;101079.53;5117365;28;20024;-75
2023/08/15 01:45:49;;;;;;;18.92;5.00;;;;;;;18.08;100.00;101086.69;5114673;28;20080;-75
2023/08/15 01:48:15;;;;;;;16.67;4.95;;;;;;;18.08;100.00;101089.41;5100181;28;20503;-74
2023/08/15 01:50:40;;;;;;;17.80;5.28;;;;;;;18.09;100.00;101088.38;5119093;28;20023;-74
2023/08/15 01:53:05;;;;;;;17.45;5.55;;;;;;;18.12;100.00;101096.22;5098321;28;20024;-75
2023/08/15 01:55:31;;;;;;;15.52;4.72;;;;;;;18.10;100.00;101100.13;5098696;28;20023;-75
2023/08/15 01:57:56;;;;;;;16.73;4.50;;;;;;;18.12;100.00;101104.38;5106284;28;20052;-74
2023/08/15 02:00:21;;;;;;;12.35;4.32;;;;;;;18.11;100.00;101112.69;5100667;28;20019;-74
2023/08/15 02:02:46;;;;;;;16.25;4.55;;;;;;;18.11;100.00;101109.97;5098079;28;20086;-75
2023/08/15 02:05:13;;;;;;;18.27;4.95;;;;;;;18.10;100.00;101117.28;5098058;28;20062;-76
2023/08/15 02:07:38;;;;;;;16.70;4.95;;;;;;;18.09;100.00;101115.56;5102405;28;20032;-74
2023/08/15 02:10:04;;;;;;;18.98;5.72;;;;;;;18.08;100.00;101119.31;5120717;28;20053;-75
2023/08/15 02:12:29;;;;;;;19.05;5.25;;;;;;;18.06;100.00;101121.31;5100048;28;20084;-76
2023/08/15 02:14:55;;;;;;;15.93;4.72;;;;;;;18.05;100.00;101122.31;5120098;28;20051;-76
2023/08/15 02:17:20;;;;;;;21.02;4.88;;;;;;;18.04;100.00;101127.91;5103251;28;20035;-75
2023/08/15 02:19:45;;;;;;;16.52;4.95;;;;;;;18.02;100.00;101136.22;5096879;28;20023;-74
2023/08/15 02:22:11;;;;;;;15.93;5.40;;;;;;;18.01;100.00;101139.13;5099172;28;20047;-75
2023/08/15 02:24:36;;;;;;;16.00;5.10;;;;;;;18.00;100.00;101154.59;5102375;28;20043;-77
2023/08/15 02:27:02;;;;;;;21.88;4.78;;;;;;;17.98;100.00;101145.75;5118811;28;20109;-74
2023/08/15 02:29:28;;;;;;;14.93;4.93;;;;;;;17.97;100.00;101144.03;5102654;28;20055;-74
2023/08/15 02:31:53;;;;;;;17.88;4.55;;;;;;;17.95;100.00;101148.75;5094254;28;20093;-76
2023/08/15 02:34:19;;;;;;;14.23;4.35;;;;;;;17.91;100.00;101145.47;5076314;28;20542;-75
2023/08/15 02:36:48;;;;;;;16.10;4.97;;;;;;;17.89;100.00;101157.47;5079875;28;20097;-74
2023/08/15 02:39:15;;;;;;;15.55;4.68;;;;;;;17.88;100.00;101155.75;5100780;28;20069;-74
2023/08/15 02:41:41;;;;;;;16.73;4.80;;;;;;;17.84;100.00;101141.63;5100440;28;20024;-75
2023/08/15 02:44:06;;;;;;;17.00;4.95;;;;;;;17.81;100.00;101137.34;5081758;28;20054;-75
2023/08/15 02:46:32;;;;;;;17.70;4.68;;;;;;;17.76;100.00;101126.09;5095555;28;20502;-76
2023/08/15 02:48:58;;;;;;;13.93;4.10;;;;;;;17.76;100.00;101130.66;5092959;28;20038;-75
2023/08/15 02:51:23;;;;;;;16.50;5.00;;;;;;;17.73;100.00;101134.56;5088546;28;20479;-75
2023/08/15 02:53:49;;;;;;;15.15;4.70;;;;;;;17.72;100.00;101134.72;5080609;28;20039;-75
2023/08/15 02:56:15;;;;;;;16.63;5.35;;;;;;;17.70;100.00;101142.16;5100377;28;20016;-75
2023/08/15 02:58:40;;;;;;;19.15;4.95;;;;;;;17.67;100.00;101143.28;5075935;28;20024;-74
2023/08/15 03:01:06;;;;;;;13.63;4.63;;;;;;;17.65;100.00;101137.16;5098092;28;20066;-74
2023/08/15 03:03:31;;;;;;;19.10;5.05;;;;;;;17.63;100.00;101136.47;5081399;28;20055;-74
2023/08/15 03:06:00;;;;;;;19.13;5.72;;;;;;;17.58;100.00;101134.19;5095211;28;20032;-75
2023/08/15 03:08:26;;;;;;;16.17;5.15;;;;;;;17.59;100.00;101141.34;5098750;28;20020;-75
2023/08/15 03:10:51;;;;;;;15.25;4.72;;;;;;;17.58;100.00;101133.34;5092940;28;20043;-74
2023/08/15 03:13:17;;;;;;;18.08;4.88;;;;;;;17.56;100.00;101133.50;5074257;28;20225;-76
2023/08/15 03:15:55;;;;;;;21.63;5.60;;;;;;;17.55;100.00;101136.38;5090388;28;20113;-78
2023/08/15 03:18:20;;;;;;;17.55;4.82;;;;;;;17.52;100.00;101133.97;5066304;28;20031;-78
2023/08/15 03:21:05;;;;;;;16.75;4.68;;;;;;;17.49;100.00;101129.66;5083250;28;20100;-78
2023/08/15 03:23:30;;;;;;;17.33;5.50;;;;;;;17.43;100.00;101130.28;5057344;28;20113;-78
2023/08/15 03:25:57;;;;;;;18.83;4.97;;;;;;;17.39;100.00;101131.59;5069678;28;20059;-78
2023/08/15 03:28:22;;;;;;;20.20;5.47;;;;;;;17.38;100.00;101124.44;5066620;28;20028;-78
2023/08/15 03:30:48;;;;;;;15.65;4.65;;;;;;;17.36;100.00;101130.00;5073601;28;20042;-78
2023/08/15 03:33:14;;;;;;;19.02;4.95;;;;;;;17.33;100.00;101121.31;5087497;28;20016;-78
2023/08/15 03:35:47;;;;;;;19.67;5.75;;;;;;;17.29;100.00;101131.63;5107070;28;20530;-77
2023/08/15 03:38:17;;;;;;;17.58;4.65;;;;;;;17.25;100.00;101138.38;5087326;28;20112;-78
2023/08/15 03:40:44;;;;;;;18.13;4.78;;;;;;;17.19;100.00;101137.09;5083874;28;20070;-78
2023/08/15 03:43:10;;;;;;;18.48;5.65;;;;;;;17.18;100.00;101138.09;5100197;28;20427;-78
2023/08/15 03:45:35;;;;;;;16.45;4.57;;;;;;;17.15;100.00;101148.44;5102089;28;20093;-78
2023/08/15 03:48:01;;;;;;;18.35;5.25;;;;;;;17.14;100.00;101149.41;5090654;28;20019;-78
2023/08/15 03:50:26;;;;;;;18.90;4.75;;;;;;;17.12;100.00;101155.00;5091756;28;20533;-78
2023/08/15 03:52:51;;;;;;;17.52;4.90;;;;;;;17.10;100.00;101159.72;5089048;28;20261;-78
2023/08/15 03:55:17;;;;;;;17.15;5.25;;;;;;;17.07;100.00;101160.88;5089244;28;20026;-77
2023/08/15 03:57:42;;;;;;;20.85;5.50;;;;;;;17.05;100.00;101159.31;5085558;28;20046;-77
2023/08/15 04:00:09;;;;;;;21.30;5.25;;;;;;;17.03;100.00;101158.59;5095633;28;20505;-78
2023/08/15 04:02:34;;;;;;;17.73;5.07;;;;;;;16.99;100.00;101159.91;5092645;28;20927;-77
2023/08/15 04:05:00;;;;;;;20.23;4.95;;;;;;;16.97;100.00;101157.34;5090096;28;20028;-78
2023/08/15 04:07:25;;;;;;;14.90;4.72;;;;;;;16.95;100.00;101156.59;5089674;28;20065;-77
2023/08/15 04:09:51;;;;;;;17.40;5.57;;;;;;;16.94;100.00;101152.16;5085446;28;20020;-78
2023/08/15 04:12:16;;;;;;;16.95;5.40;;;;;;;16.92;100.00;101154.19;5107476;28;20487;-77
2023/08/15 04:14:41;;;;;;;18.65;5.47;;;;;;;16.89;100.00;101152.63;5104067;28;20023;-78
2023/08/15 04:17:07;;;;;;;15.57;4.78;;;;;;;16.87;100.00;101142.91;5092994;28;20471;-76
2023/08/15 04:19:32;;;;;;;18.40;5.35;;;;;;;16.85;100.00;101142.16;5105612;28;20366;-78
2023/08/15 04:21:57;;;;;;;18.95;5.47;;;;;;;16.81;100.00;101141.63;5095119;28;20821;-78
2023/08/15 04:24:22;;;;;;;18.10;5.50;;;;;;;16.76;100.00;101136.63;5113475;28;20118;-77
2023/08/15 04:26:48;;;;;;;20.25;5.60;;;;;;;16.71;100.00;101141.63;5101731;28;20031;-74
2023/08/15 04:29:13;;;;;;;21.70;6.07;;;;;;;16.67;100.00;101145.63;5103647;28;20058;-73
2023/08/15 04:31:39;;;;;;;20.40;5.80;;;;;;;16.66;100.00;101162.06;5103814;28;20474;-74
2023/08/15 04:34:05;;;;;;;18.63;5.63;;;;;;;16.65;100.00;101149.47;5102637;28;20046;-74
2023/08/15 04:36:31;;;;;;;19.60;6.50;;;;;;;16.63;100.00;101165.91;5101965;28;20030;-74
2023/08/15 04:38:56;;;;;;;18.83;5.70;;;;;;;16.62;100.00;101158.78;5101390;28;20024;-74
2023/08/15 04:41:21;;;;;;;20.05;5.93;;;;;;;16.61;100.00;101157.06;5115515;28;20035;-75
2023/08/15 04:43:47;;;;;;;23.38;6.03;;;;;;;16.61;100.00;101167.94;5107519;28;20030;-74
2023/08/15 04:46:12;;;;;;;18.30;5.53;;;;;;;16.63;100.00;101170.50;5099530;28;20050;-74
2023/08/15 04:48:38;;;;;;;21.38;6.43;;;;;;;16.65;100.00;101172.06;5109845;28;20047;-74
2023/08/15 04:51:03;;;;;;;24.98;6.18;;;;;;;16.66;100.00;101171.06;5102692;28;20047;-74
2023/08/15 04:53:29;;;;;;;20.17;5.70;;;;;;;16.66;100.00;101178.34;5109304;28;20087;-75
2023/08/15 04:55:54;;;;;;;22.40;6.47;;;;;;;16.64;100.00;101186.63;5114950;28;20099;-74
2023/08/15 04:58:19;;;;;;;16.98;5.35;;;;;;;16.67;100.00;101189.06;5118540;28;20050;-74
2023/08/15 05:00:45;;;;;;;21.17;6.38;;;;;;;16.67;100.00;101197.19;5100786;28;20095;-74
2023/08/15 05:03:10;;;;;;;19.02;6.00;;;;;;;16.70;100.00;101204.19;5102448;28;20027;-74
2023/08/15 05:05:35;;;;;;;23.10;5.68;;;;;;;16.69;100.00;101207.91;5110623;28;20035;-75
2023/08/15 05:08:01;;;;;;;19.85;5.43;;;;;;;16.70;100.00;101212.34;5115245;28;20093;-74
2023/08/15 05:10:26;;;;;;;19.83;6.00;;;;;;;16.71;100.00;101220.34;5113709;28;20522;-74
2023/08/15 05:12:52;;;;;;;19.02;5.82;;;;;;;16.70;100.00;101215.91;5118048;28;20036;-74
2023/08/15 05:15:17;;;;;;;18.90;5.72;;;;;;;16.73;100.00;101220.19;5117561;28;20067;-74
2023/08/15 05:17:43;;;;;;;18.38;5.43;;;;;;;16.74;100.00;101236.34;5114964;28;20031;-74
2023/08/15 05:20:09;;;;;;;16.67;5.68;;;;;;;16.74;100.00;101239.03;5112984;28;20128;-74
2023/08/15 05:22:35;;;;;;;18.83;6.50;;;;;;;16.77;100.00;101248.75;5119790;28;20073;-74
2023/08/15 05:25:00;;;;;;;20.67;6.00;;;;;;;16.80;100.00;101248.47;5101326;28;20408;-74
2023/08/15 05:27:26;;;;;;;17.10;5.07;;;;;;;16.80;100.00;101250.34;5115587;28;20028;-75
2023/08/15 05:29:52;;;;;;;19.88;5.50;;;;;;;16.82;100.00;101248.34;5116453;28;20084;-75
2023/08/15 05:32:17;;;;;;;20.55;6.15;;;;;;;16.83;100.00;101253.63;5100883;28;20062;-75
2023/08/15 05:34:42;;;;;;;19.30;5.72;;;;;;;16.84;100.00;101252.63;5115596;28;20027;-74
2023/08/15 05:37:08;;;;;;;21.33;6.55;;;;;;;16.89;100.00;101249.50;5090587;28;20552;-77
2023/08/15 05:39:33;;;;;;;16.65;5.40;;;;;;;16.90;100.00;101245.81;5092207;28;20144;-78
2023/08/15 05:41:58;;;;;;;17.13;5.95;;;;;;;16.93;100.00;101237.38;5088630;28;20027;-77
2023/08/15 05:44:24;;;;;;;19.00;6.18;;;;;;;16.98;100.00;101236.91;5092542;28;20046;-78
2023/08/15 05:46:49;;;;;;;13.40;4.90;;;;;;;17.01;100.00;101228.47;5104363;28;20101;-78
2023/08/15 05:49:15;;;;;;;16.52;5.10;;;;;;;17.04;100.00;101239.06;5103937;28;20102;-78
2023/08/15 05:51:40;;;;;;;17.42;5.57;;;;;;;17.08;100.00;101241.31;5110905;28;20081;-78
2023/08/15 05:54:06;;;;;;;18.92;5.63;;;;;;;17.13;100.00;101249.06;5092313;28;20474;-78
2023/08/15 05:56:31;;;;;;;18.80;5.88;;;;;;;17.18;100.00;101267.63;5093121;28;20115;-78
2023/08/15 05:58:56;;;;;;;19.98;6.72;;;;;;;17.23;100.00;101265.31;5108991;28;20024;-78
2023/08/15 06:01:22;;;;;;;20.83;6.00;;;;;;;17.27;100.00;101266.75;5090639;28;20034;-78
2023/08/15 06:03:48;;;;;;;21.35;5.78;;;;;;;17.32;100.00;101259.03;5090671;28;20561;-78
2023/08/15 06:06:13;;;;;;;20.63;6.35;;;;;;;17.38;100.00;101272.03;5100047;28;20036;-78
2023/08/15 06:08:39;;;;;;;26.65;6.88;;;;;;;17.43;100.00;101269.69;5083018;28;20031;-79
2023/08/15 06:11:05;;;;;;;23.58;6.78;;;;;;;17.46;100.00;101266.69;5108693;28;20110;-79
2023/08/15 06:13:31;;;;;;;17.60;5.90;;;;;;;17.52;100.00;101276.13;5107346;28;20378;-78
2023/08/15 06:15:56;;;;;;;21.40;6.18;;;;;;;17.55;100.00;101285.84;5096702;28;20031;-78
2023/08/15 06:18:21;;;;;;;20.08;5.80;;;;;;;17.59;100.00;101289.97;5096907;28;20030;-80
2023/08/15 06:20:49;;;;;;;20.83;6.45;;;;;;;17.65;100.00;101289.38;5089575;28;20019;-79
2023/08/15 06:23:14;;;;;;;25.15;7.22;;;;;;;17.71;100.00;101296.09;5106703;28;20031;-78
2023/08/15 06:25:40;;;;;;;19.48;7.10;;;;;;;17.74;100.00;101291.19;5105890;28;20019;-79
2023/08/15 06:28:07;;;;;;;20.42;7.45;;;;;;;17.79;100.00;101293.50;5102669;28;20110;-80
2023/08/15 06:30:33;;;;;;;21.33;6.63;;;;;;;17.86;100.00;101299.19;5089574;28;20019;-79
2023/08/15 06:32:58;;;;;;;23.42;7.30;;;;;;;17.89;100.00;101298.88;5092360;28;20027;-79
2023/08/15 06:35:28;;;;;;;25.17;7.22;;;;;;;17.94;100.00;101293.91;5089853;28;20096;-79
2023/08/15 06:37:54;;;;;;;23.25;7.63;;;;;;;17.98;100.00;101298.88;5089111;28;20027;-79
2023/08/15 06:40:19;;;;;;;23.25;7.30;;;;;;;18.02;100.00;101302.13;5090288;28;20024;-78
2023/08/15 06:42:44;;;;;;;18.15;6.53;;;;;;;18.08;100.00;101298.84;5087917;28;20336;-80
2023/08/15 06:45:16;;;;;;;20.88;7.18;;;;;;;18.13;100.00;101301.09;5090633;28;20042;-75
2023/08/15 06:47:41;;;;;;;19.48;6.82;;;;;;;18.17;100.00;101300.66;5105467;28;20043;-73
2023/08/15 06:50:08;;;;;;;24.45;7.85;;;;;;;18.22;100.00;101305.63;5106020;28;20027;-72
2023/08/15 06:52:33;;;;;;;19.98;7.40;;;;;;;18.27;100.00;101307.88;5091830;28;20027;-74
2023/08/15 06:54:59;;;;;;;24.30;6.90;;;;;;;18.31;100.00;101312.03;5111769;28;20106;-73
2023/08/15 06:57:24;;;;;;;23.52;7.85;;;;;;;18.34;100.00;101304.41;5095233;28;20444;-72
2023/08/15 06:59:50;;;;;;;24.13;7.35;;;;;;;18.40;100.00;101302.94;5109045;28;20034;-74
2023/08/15 07:02:15;;;;;;;23.02;7.70;;;;;;;18.44;100.00;101309.78;5107690;28;20034;-73
2023/08/15 07:04:41;;;;;;;25.40;8.10;;;;;;;18.49;100.00;101307.47;5119749;28;20111;-74
2023/08/15 07:07:08;;;;;;;22.65;7.32;;;;;;;18.53;100.00;101302.56;5122807;28;20036;-73
2023/08/15 07:09:35;;;;;;;26.23;6.70;;;;;;;18.58;100.00;101302.97;5099385;28;20077;-73
2023/08/15 07:12:04;;;;;;;20.58;6.80;;;;;;;18.61;100.00;101310.84;5100476;28;20024;-73
2023/08/15 07:14:30;;;;;;;;;;;;;;;18.68;100.00;101309.22;5101380;28;20039;-73
2023/08/15 07:16:56;;;;;;;18.77;5.90;;;;;;;18.68;100.00;101311.06;5118544;28;20245;-74
2023/08/15 07:19:21;;;;;;;21.23;6.00;;;;;;;18.72;100.00;101317.91;5114391;28;20081;-73
2023/08/15 07:21:46;;;;;;;21.58;5.93;;;;;;;18.79;100.00;101313.56;5098712;28;20403;-73
2023/08/15 07:24:11;;;;;;;22.63;6.75;;;;;;;18.82;100.00;101328.75;5100601;28;20049;-73
2023/08/15 07:26:37;;;;;;;18.88;5.28;;;;;;;18.85;100.00;101326.56;5102263;28;20053;-73
2023/08/15 07:29:02;;;;;;;21.50;5.45;;;;;;;18.91;100.00;101329.72;5100751;28;20042;-73
2023/08/15 07:31:28;;;;;;;17.65;5.00;;;;;;;18.95;100.00;101333.84;5097710;28;20446;-74
2023/08/15 07:33:54;;;;;;;18.95;5.00;;;;;;;19.00;100.00;101336.94;5084683;28;20020;-75
2023/08/15 07:36:19;;;;;;;14.95;5.20;;;;;;;19.03;100.00;101342.06;5100228;28;20054;-74
2023/08/15 07:38:44;;;;;;;19.80;5.65;;;;;;;19.04;100.00;101341.91;5082710;28;20045;-73
2023/08/15 07:41:10;;;;;;;18.90;4.93;;;;;;;19.10;100.00;101339.59;5095146;28;20056;-73
2023/08/15 07:43:35;;;;;;;14.73;4.82;;;;;;;19.14;100.00;101339.13;5081111;28;20046;-73
2023/08/15 07:46:00;;;;;;;16.88;5.10;;;;;;;19.18;100.00;101345.09;5099550;28;20028;-75
2023/08/15 07:48:26;;;;;;;19.73;5.18;;;;;;;19.18;100.00;101331.47;5081457;28;20015;-73
2023/08/15 07:50:51;;;;;;;15.27;4.63;;;;;;;19.19;100.00;101333.19;5107760;28;20028;-72
2023/08/15 07:53:16;;;;;;;19.23;4.93;;;;;;;19.19;100.00;101335.91;5113270;28;20059;-72
2023/08/15 07:55:42;;;;;;;15.70;4.70;;;;;;;19.20;100.00;101349.38;5112696;28;20072;-72
2023/08/15 07:58:08;;;;;;;16.20;4.65;;;;;;;19.25;100.00;101342.63;5099469;28;20024;-73
2023/08/15 08:00:33;;;;;;;12.50;3.83;;;;;;;19.30;100.00;101343.84;5101294;28;20035;-73
2023/08/15 08:03:01;;;;;;;17.45;5.07;;;;;;;19.34;100.00;101350.72;5103032;28;20040;-73
2023/08/15 08:05:28;;;;;;;15.75;4.15;;;;;;;19.39;100.00;101348.34;5097640;28;20028;-72
2023/08/15 08:07:54;;;;;;;17.48;4.43;;;;;;;19.47;100.00;101350.28;5072912;28;20021;-72
2023/08/15 08:10:19;;;;;;;22.75;4.47;;;;;;;19.51;100.00;101343.50;5097595;28;20039;-74
2023/08/15 08:12:45;;;;;;;23.83;5.75;;;;;;;19.56;100.00;101346.63;5082404;28;20028;-75
2023/08/15 08:15:11;;;;;;;16.00;3.97;;;;;;;19.60;100.00;101349.03;5088638;28;20103;-75
2023/08/15 08:17:36;;;;;;;15.27;4.82;;;;;;;19.64;100.00;101348.53;5093183;28;20122;-78
2023/08/15 08:20:06;;;;;;;15.65;4.65;;;;;;;19.66;100.00;101351.09;5074129;28;20035;-75
2023/08/15 08:22:31;;;;;;;18.55;4.60;;;;;;;19.69;100.00;101351.66;5074223;28;20031;-72
2023/08/15 08:25:09;;;;;;;17.00;5.20;;;;;;;19.72;100.00;101351.31;5085572;28;20020;-77
2023/08/15 08:27:35;;;;;;;17.35;5.07;;;;;;;19.77;100.00;101366.34;5082244;28;20020;-75
2023/08/15 08:30:00;;;;;;;22.92;5.68;;;;;;;19.79;100.00;101356.16;5092090;28;20474;-75
2023/08/15 08:32:27;;;;;;;19.45;5.20;;;;;;;19.83;100.00;101360.28;5105953;28;20109;-78
2023/08/15 08:34:52;;;;;;;21.52;4.45;;;;;;;19.84;100.00;101351.94;5104794;28;20038;-76
2023/08/15 08:37:18;;;;;;;19.05;4.68;;;;;;;19.85;100.00;101358.25;5105251;28;20084;-75
2023/08/15 08:39:43;;;;;;;23.80;5.93;;;;;;;19.86;100.00;101360.81;5110498;28;20106;-77
2023/08/15 08:42:09;;;;;;;22.80;5.20;;;;;;;19.87;100.00;101356.22;5094276;28;20027;-80
2023/08/15 08:44:36;;;;;;;17.50;4.88;;;;;;;19.88;100.00;101360.63;5108670;28;20094;-79
2023/08/15 08:47:01;;;;;;;16.23;4.30;;;;;;;19.92;100.00;101363.91;5091048;28;20024;-79
2023/08/15 08:49:28;;;;;;;18.70;4.78;;;;;;;19.96;100.00;101355.25;5085915;28;20028;-79
2023/08/15 08:51:55;;;;;;;14.43;4.38;;;;;;;20.01;100.00;101357.47;5102926;28;20030;-79
2023/08/15 08:54:21;;;;;;;19.27;5.00;;;;;;;20.12;100.00;101354.47;5085015;28;20088;-79
2023/08/15 08:56:49;;;;;;;18.20;4.93;;;;;;;20.18;100.00;101370.19;5091068;28;20027;-79
2023/08/15 08:59:17;;;;;;;18.85;4.82;;;;;;;20.27;100.00;101367.50;5092162;28;20031;-79
2023/08/15 09:01:43;;;;;;;14.85;4.75;;;;;;;20.36;100.00;101371.97;5092147;28;20209;-79
2023/08/15 09:04:09;;;;;;;23.75;5.63;;;;;;;20.37;99.60;101366.34;5109441;28;20090;-79
2023/08/15 09:06:34;;;;;;;21.33;5.30;;;;;;;20.46;99.05;101372.69;5088355;28;20038;-79
2023/08/15 09:09:00;;;;;;;18.08;4.72;;;;;;;20.56;100.00;101378.03;5087972;28;20532;-79
2023/08/15 09:11:35;;;;;;;16.75;4.65;;;;;;;20.55;100.00;101377.16;5088748;28;20173;-79
2023/08/15 09:14:05;;;;;;;13.23;4.00;;;;;;;20.60;97.81;101373.94;5091449;28;20471;-79
2023/08/15 09:16:32;;;;;;;17.60;4.70;;;;;;;20.64;98.40;101382.66;5089095;28;20075;-79
2023/08/15 09:19:02;;;;;;;19.27;5.13;;;;;;;20.66;95.62;101377.88;5090238;28;20060;-79
2023/08/15 09:21:28;;;;;;;20.42;4.85;;;;;;;20.70;95.88;101379.28;5102278;28;20065;-79
2023/08/15 09:23:56;;;;;;;15.02;4.00;;;;;;;20.73;96.62;101379.84;5089263;28;20056;-79
2023/08/15 09:26:23;;;;;;;14.25;4.43;;;;;;;20.73;94.17;101379.84;5088227;28;20027;-79
2023/08/15 09:28:49;;;;;;;19.88;4.75;;;;;;;20.80;94.41;101390.94;5103731;28;20032;-79
2023/08/15 09:31:15;;;;;;;12.00;4.20;;;;;;;20.83;94.39;101381.56;5098759;28;20097;-80
2023/08/15 09:33:40;;;;;;;14.48;4.38;;;;;;;20.86;95.32;101395.72;5109418;28;20032;-79
2023/08/15 09:36:07;;;;;;;13.95;3.83;;;;;;;20.88;95.47;101395.56;5089767;28;20031;-79
2023/08/15 09:38:35;;;;;;;18.25;4.53;;;;;;;20.97;95.53;101393.69;5102780;28;20483;-79
2023/08/15 09:41:00;;;;;;;20.35;5.15;;;;;;;20.99;94.99;101391.66;5089832;28;20027;-79
2023/08/15 09:43:26;;;;;;;15.55;4.75;;;;;;;21.01;92.79;101390.50;5107482;28;20356;-80
2023/08/15 09:45:52;;;;;;;16.98;4.93;;;;;;;21.06;94.95;101390.81;5104096;28;20028;-79
2023/08/15 09:48:22;;;;;;;17.58;4.47;;;;;;;21.06;93.46;101388.09;5108313;28;20028;-79
2023/08/15 09:50:48;;;;;;;16.45;4.88;;;;;;;21.06;92.98;101398.19;5082335;28;20038;-79
2023/08/15 09:53:14;;;;;;;13.98;3.90;;;;;;;21.07;93.66;101395.28;5086676;28;20023;-79
2023/08/15 09:55:39;;;;;;;15.02;4.35;;;;;;;21.09;92.57;101401.41;5091797;28;20024;-79
2023/08/15 09:58:05;;;;;;;17.48;4.15;;;;;;;21.14;91.59;101406.38;5095149;28;20132;-79
2023/08/15 10:00:31;;;;;;;14.75;3.83;;;;;;;21.12;88.56;101411.16;5108462;28;20035;-79
2023/08/15 10:03:01;;;;;;;11.63;3.90;;;;;;;21.11;89.78;101410.31;5090632;28;20485;-79
2023/08/15 10:05:31;;;;;;;14.93;4.18;;;;;;;21.16;89.77;101425.34;5083755;28;20035;-79
2023/08/15 10:07:58;;;;;;;15.75;4.05;;;;;;;21.19;88.58;101425.03;5090932;28;20533;-79
2023/08/15 10:10:24;;;;;;;19.55;4.68;;;;;;;21.26;91.20;101426.03;5108244;28;20072;-79
2023/08/15 10:12:51;;;;;;;11.30;3.75;;;;;;;21.29;91.17;101428.44;5089741;28;20162;-79
2023/08/15 10:15:17;;;;;;;12.60;3.55;;;;;;;21.32;89.56;101427.22;5110017;28;20396;-81
2023/08/15 10:17:43;;;;;;;16.83;4.13;;;;;;;21.30;88.94;101433.75;5123580;28;20062;-79
2023/08/15 10:20:12;;;;;;;14.82;4.10;;;;;;;21.31;88.93;101426.38;5119365;28;20019;-78
2023/08/15 10:22:39;;;;;;;15.95;3.78;;;;;;;21.35;90.21;101426.91;5120560;28;20046;-78
2023/08/15 10:25:23;;;;;;;15.43;4.20;;;;;;;21.36;90.05;101418.53;5100730;28;20015;-78
2023/08/15 10:27:50;;;;;;;17.00;4.93;;;;;;;21.40;88.10;101428.09;5096502;28;20435;-78
2023/08/15 10:30:42;;;;;;;13.70;3.58;;;;;;;21.40;89.89;101428.09;5097731;28;20031;-78
2023/08/15 10:33:37;;;;;;;14.57;4.25;;;;;;;21.39;89.85;101428.28;5106347;28;20056;-78
2023/08/15 10:36:02;;;;;;;17.20;4.30;;;;;;;21.42;87.28;101441.59;5076977;28;20041;-81
2023/08/15 10:38:39;;;;;;;10.63;3.45;;;;;;;21.44;88.30;101436.84;5115201;28;20038;-79
2023/08/15 10:41:17;;;;;;;11.00;3.70;;;;;;;21.46;88.86;101440.25;5112088;28;20050;-79
2023/08/15 10:43:49;;;;;;;15.23;4.35;;;;;;;21.48;85.00;101439.06;5104724;28;20121;-78
2023/08/15 10:46:18;;;;;;;14.57;3.70;;;;;;;21.49;84.79;101437.16;5108137;28;20040;-78
2023/08/15 10:48:55;;;;;;;14.00;3.88;;;;;;;21.53;88.99;101444.03;5096802;28;20049;-78
2023/08/15 10:51:29;;;;;;;15.02;4.03;;;;;;;21.54;85.78;101437.56;5091864;28;20441;-78
2023/08/15 10:53:57;;;;;;;14.95;3.92;;;;;;;21.57;88.76;101439.09;5093114;28;20012;-78
2023/08/15 10:56:27;;;;;;;14.13;4.25;;;;;;;21.57;87.82;101434.47;5094885;28;20019;-78
2023/08/15 10:58:53;;;;;;;21.00;4.40;;;;;;;21.61;87.56;101422.19;5099598;28;20023;-79
2023/08/15 11:01:19;;;;;;;14.55;3.95;;;;;;;21.69;86.37;101421.31;5111986;28;20038;-81
2023/08/15 11:03:47;;;;;;;16.15;4.30;;;;;;;21.79;86.40;101434.81;5115700;28;20031;-80
2023/08/15 11:06:13;;;;;;;15.20;4.05;;;;;;;21.91;84.77;101438.06;5100921;28;20028;-78
2023/08/15 11:08:57;;;;;;;14.82;3.65;;;;;;;21.97;83.72;101432.72;5096867;28;20027;-79
2023/08/15 11:11:23;;;;;;;13.05;3.33;;;;;;;21.98;82.16;101439.91;5088026;28;20035;-79